Time;durP1;ratioP1;P1;durP2;ratioP2;P2;SDS_P1;SDS_P2;PMS_P1;PMS_P2;Temp;Humidity;BMP_temperature;BMP_pressure;BME280_temperature;BME280_humidity;BME280_pressure;Samples;Min_cycle;Max_cycle;Signal;HPM_P1;HPM_P2
2021/09/28 02:59:40;;;;;;;3.85;0.93;;;;;;;20.31;37.66;100854.47;5556968;23;20062;-72
2021/09/28 03:02:05;;;;;;;6.05;1.30;;;;;;;20.18;38.12;100848.38;4917063;29;20044;-69
2021/09/28 03:04:31;;;;;;;8.68;1.55;;;;;;;20.30;37.96;100852.06;4915777;29;20043;-71
2021/09/28 03:06:56;;;;;;;11.25;2.08;;;;;;;20.27;37.82;100845.31;4915835;29;20471;-72
2021/09/28 03:09:22;;;;;;;3.55;0.90;;;;;;;20.19;37.99;100849.97;4918516;29;20028;-70
2021/09/28 03:11:47;;;;;;;6.65;1.45;;;;;;;20.20;38.02;100851.56;4919397;29;20028;-72
2021/09/28 03:14:13;;;;;;;5.63;1.58;;;;;;;20.29;37.94;100842.94;4919279;29;20466;-72
2021/09/28 03:16:38;;;;;;;7.13;1.27;;;;;;;20.34;37.75;100839.84;4902101;29;20419;-70
2021/09/28 03:19:04;;;;;;;6.13;1.75;;;;;;;20.34;37.81;100842.63;4919077;29;20605;-69
2021/09/28 03:21:29;;;;;;;4.35;1.40;;;;;;;20.35;37.88;100847.00;4923638;29;20024;-69
2021/09/28 03:23:55;;;;;;;5.85;1.90;;;;;;;20.28;38.06;100841.34;4927275;29;20070;-70
2021/09/28 03:26:21;;;;;;;3.83;1.50;;;;;;;20.24;38.08;100843.25;4926964;29;20095;-70
2021/09/28 03:28:47;;;;;;;7.20;1.67;;;;;;;20.33;37.92;100842.97;4928231;29;20024;-71
2021/09/28 03:31:13;;;;;;;9.10;2.28;;;;;;;20.30;38.24;100843.75;4926488;29;20035;-71
2021/09/28 03:33:38;;;;;;;3.80;1.20;;;;;;;20.29;38.15;100847.69;4927195;29;20466;-71
2021/09/28 03:36:04;;;;;;;9.02;3.00;;;;;;;20.31;38.16;100839.78;4928076;29;20025;-71
2021/09/28 03:38:30;;;;;;;6.03;1.80;;;;;;;20.38;37.99;100837.91;4926176;29;20020;-70
2021/09/28 03:40:55;;;;;;;4.68;1.17;;;;;;;20.39;38.01;100831.19;4927502;29;20493;-70
2021/09/28 03:43:21;;;;;;;6.80;1.73;;;;;;;20.42;38.04;100832.41;4927358;29;20399;-69
2021/09/28 03:45:46;;;;;;;7.95;1.60;;;;;;;20.34;38.23;100837.06;4925942;29;20039;-71
2021/09/28 03:48:12;;;;;;;9.50;1.75;;;;;;;20.35;38.14;100835.91;4926097;29;20035;-72
2021/09/28 03:50:38;;;;;;;6.47;2.05;;;;;;;20.21;38.40;100839.28;4910051;29;20462;-71
2021/09/28 03:53:05;;;;;;;5.63;1.40;;;;;;;20.10;38.68;100838.34;4927763;29;20036;-72
2021/09/28 03:55:31;;;;;;;6.97;1.42;;;;;;;20.23;38.27;100833.34;4925804;29;20028;-70
2021/09/28 03:57:57;;;;;;;3.90;1.20;;;;;;;20.24;38.30;100834.94;4927253;29;20028;-70
2021/09/28 04:00:23;;;;;;;12.85;2.22;;;;;;;20.34;38.01;100830.72;4926936;29;20047;-70
2021/09/28 04:02:49;;;;;;;5.05;1.63;;;;;;;20.17;38.40;100826.53;4918176;29;20024;-72
2021/09/28 04:05:15;;;;;;;6.88;1.27;;;;;;;20.17;38.29;100830.09;4918206;29;20033;-69
2021/09/28 04:07:41;;;;;;;6.53;2.10;;;;;;;20.21;38.16;100824.59;4918123;29;20032;-69
2021/09/28 04:10:09;;;;;;;8.05;1.65;;;;;;;20.11;38.45;100820.53;4918057;29;20110;-69
2021/09/28 04:12:35;;;;;;;5.25;1.50;;;;;;;20.14;38.13;100819.75;4927281;29;20024;-71
2021/09/28 04:15:02;;;;;;;4.97;1.48;;;;;;;20.19;38.25;100818.66;4936906;29;20028;-69
2021/09/28 04:17:28;;;;;;;9.82;1.40;;;;;;;20.04;38.45;100825.19;4936774;29;20038;-69
2021/09/28 04:19:54;;;;;;;8.60;1.67;;;;;;;20.07;38.44;100816.09;4936220;29;20110;-69
2021/09/28 04:22:21;;;;;;;8.75;1.98;;;;;;;20.06;38.50;100822.81;4936878;29;20028;-69
2021/09/28 04:24:49;;;;;;;7.65;2.25;;;;;;;20.05;38.50;100815.69;4936684;29;20039;-69
2021/09/28 04:27:15;;;;;;;9.43;3.03;;;;;;;20.07;38.45;100813.31;4936602;29;20063;-69
2021/09/28 04:29:40;;;;;;;6.68;1.48;;;;;;;20.15;38.19;100812.25;4936816;29;20098;-69
2021/09/28 04:32:06;;;;;;;6.40;1.63;;;;;;;20.02;38.64;100811.66;4936341;29;20064;-69
2021/09/28 04:34:32;;;;;;;7.60;1.92;;;;;;;20.06;38.55;100811.72;4936308;29;20494;-70
2021/09/28 04:36:59;;;;;;;8.57;1.33;;;;;;;19.88;38.77;100812.28;4936677;29;20039;-70
2021/09/28 04:39:25;;;;;;;7.03;1.65;;;;;;;20.04;38.45;100823.19;4936525;29;20078;-70
2021/09/28 04:41:50;;;;;;;7.95;1.73;;;;;;;20.07;38.42;100822.44;4936375;29;20035;-70
2021/09/28 04:44:16;;;;;;;8.43;2.45;;;;;;;20.03;38.46;100820.81;4936349;29;20501;-70
2021/09/28 04:46:41;;;;;;;4.78;1.85;;;;;;;20.05;38.41;100824.78;4936189;29;20094;-69
2021/09/28 04:49:07;;;;;;;7.63;1.67;;;;;;;20.01;38.70;100825.91;4936212;29;20020;-69
2021/09/28 04:51:33;;;;;;;9.38;1.75;;;;;;;20.01;38.74;100831.47;4936158;29;20035;-69
2021/09/28 04:53:58;;;;;;;10.18;1.70;;;;;;;20.05;38.57;100826.78;4936129;29;20032;-69
2021/09/28 04:56:24;;;;;;;11.00;2.55;;;;;;;20.01;38.64;100825.91;4936438;29;20508;-69
2021/09/28 04:58:49;;;;;;;7.72;2.08;;;;;;;20.04;38.57;100825.97;4936157;29;20402;-69
2021/09/28 05:01:15;;;;;;;4.55;1.70;;;;;;;19.99;38.66;100826.28;4935915;29;20103;-69
2021/09/28 05:03:41;;;;;;;7.80;1.92;;;;;;;19.93;38.86;100820.25;4935944;29;20070;-69
2021/09/28 05:06:07;;;;;;;9.27;2.97;;;;;;;20.03;38.69;100835.47;4936277;29;20120;-69
2021/09/28 05:08:33;;;;;;;8.70;2.35;;;;;;;20.02;38.67;100827.50;4936026;29;20112;-69
2021/09/28 05:10:59;;;;;;;6.82;1.70;;;;;;;20.05;38.62;100827.56;4936017;29;20024;-68
2021/09/28 05:13:24;;;;;;;5.47;1.63;;;;;;;20.01;38.87;100823.13;4935867;29;20028;-70
2021/09/28 05:15:50;;;;;;;9.45;1.98;;;;;;;20.07;38.69;100818.88;4935856;29;20389;-70
2021/09/28 05:18:15;;;;;;;6.57;1.80;;;;;;;20.02;38.73;100813.63;4935755;29;20382;-70
2021/09/28 05:20:41;;;;;;;10.27;2.13;;;;;;;20.06;38.75;100818.06;4935748;29;20036;-70
2021/09/28 05:23:06;;;;;;;5.93;1.73;;;;;;;20.01;38.91;100814.81;4935986;29;20028;-70
2021/09/28 05:25:32;;;;;;;8.25;1.77;;;;;;;20.06;38.83;100823.63;4935623;29;20040;-69
2021/09/28 05:27:58;;;;;;;8.73;2.20;;;;;;;20.10;38.76;100820.88;4935853;29;20031;-70
2021/09/28 05:30:23;;;;;;;6.18;1.88;;;;;;;20.02;38.99;100824.72;4935115;29;20458;-70
2021/09/28 05:32:49;;;;;;;8.35;1.60;;;;;;;20.06;38.91;100820.03;4935342;29;20118;-70
2021/09/28 05:35:15;;;;;;;6.32;1.90;;;;;;;20.08;38.89;100803.81;4935536;29;20467;-69
2021/09/28 05:37:40;;;;;;;10.48;1.50;;;;;;;20.05;39.08;100812.91;4935538;29;20028;-70
2021/09/28 05:40:07;;;;;;;10.18;1.90;;;;;;;20.17;38.78;100812.66;4935454;29;20032;-69
2021/09/28 05:42:33;;;;;;;8.85;1.85;;;;;;;20.25;38.73;100800.47;4935486;29;20171;-70
2021/09/28 05:44:59;;;;;;;7.18;1.63;;;;;;;20.24;38.79;100805.22;4935511;29;20620;-69
2021/09/28 05:47:25;;;;;;;10.77;2.72;;;;;;;20.18;38.98;100801.19;4935355;29;20019;-69
2021/09/28 05:49:52;;;;;;;15.18;2.38;;;;;;;20.14;39.10;100807.88;4935411;29;20019;-69
2021/09/28 05:52:18;;;;;;;6.68;1.73;;;;;;;20.35;38.69;100802.59;4935314;29;20497;-69
2021/09/28 05:54:48;;;;;;;8.80;1.58;;;;;;;20.22;38.90;100801.22;4918086;29;20389;-68
2021/09/28 05:57:15;;;;;;;13.55;1.92;;;;;;;20.29;38.98;100801.31;4935813;29;20024;-69
2021/09/28 05:59:41;;;;;;;5.55;1.60;;;;;;;20.20;39.15;100796.06;4935044;29;20036;-69
2021/09/28 06:02:07;;;;;;;6.47;2.33;;;;;;;20.33;39.08;100798.59;4935290;29;20051;-68
2021/09/28 06:04:35;;;;;;;7.95;1.90;;;;;;;20.33;39.07;100793.03;4935225;29;20043;-68
2021/09/28 06:07:01;;;;;;;8.50;2.10;;;;;;;20.33;39.15;100795.81;4918227;29;20032;-69
2021/09/28 06:09:27;;;;;;;10.45;1.83;;;;;;;20.32;39.15;100789.47;4935059;29;20028;-69
2021/09/28 06:11:53;;;;;;;8.57;2.13;;;;;;;20.40;38.97;100773.69;4935113;29;20106;-69
2021/09/28 06:14:19;;;;;;;7.20;1.75;;;;;;;20.46;39.04;100786.09;4935027;29;20032;-70
2021/09/28 06:16:44;;;;;;;7.13;1.88;;;;;;;20.43;39.09;100776.53;4935139;29;20062;-70
2021/09/28 06:19:10;;;;;;;11.90;2.38;;;;;;;20.36;39.32;100784.75;4935074;29;20043;-70
2021/09/28 06:21:35;;;;;;;10.48;1.98;;;;;;;20.44;38.82;100783.69;4935068;29;20040;-69
2021/09/28 06:24:01;;;;;;;9.40;2.35;;;;;;;20.48;38.93;100792.09;4935084;29;20039;-68
2021/09/28 06:26:27;;;;;;;12.70;2.33;;;;;;;20.45;39.14;100785.28;4935072;29;20422;-68
2021/09/28 06:28:52;;;;;;;7.95;2.05;;;;;;;20.48;39.09;100780.97;4935350;29;20032;-68
2021/09/28 06:31:18;;;;;;;6.97;2.03;;;;;;;20.50;39.14;100778.63;4935000;29;20071;-68
2021/09/28 06:33:44;;;;;;;12.57;2.33;;;;;;;20.46;39.29;100784.13;4935136;29;20478;-69
2021/09/28 06:36:10;;;;;;;12.63;2.15;;;;;;;20.39;39.50;100786.78;4934758;29;20031;-68
2021/09/28 06:38:35;;;;;;;7.22;2.65;;;;;;;20.52;39.48;100781.00;4935083;29;20134;-68
2021/09/28 06:41:01;;;;;;;11.75;2.33;;;;;;;20.57;39.12;100789.81;4934873;29;20055;-67
2021/09/28 06:43:27;;;;;;;7.38;2.08;;;;;;;20.58;39.21;100782.28;4920689;29;20043;-68
2021/09/28 06:45:52;;;;;;;10.25;2.70;;;;;;;20.52;39.64;100778.22;4938547;29;20414;-69
2021/09/28 06:48:18;;;;;;;11.15;2.28;;;;;;;20.55;39.46;100785.78;4938489;29;20028;-68
2021/09/28 06:50:46;;;;;;;6.95;2.33;;;;;;;20.66;39.31;100781.16;4938443;29;20040;-67
2021/09/28 06:53:11;;;;;;;20.67;3.08;;;;;;;20.59;39.53;100778.31;4938354;29;20449;-69
2021/09/28 06:55:37;;;;;;;9.10;1.85;;;;;;;20.70;39.29;100776.44;4938435;29;20055;-68
2021/09/28 06:58:06;;;;;;;9.55;2.83;;;;;;;20.68;39.53;100779.59;4938349;29;20055;-72
2021/09/28 07:00:34;;;;;;;11.95;2.25;;;;;;;20.74;39.48;100780.06;4938121;29;20074;-69
2021/09/28 07:03:00;;;;;;;13.13;2.28;;;;;;;20.75;39.63;100787.22;4938530;29;20438;-70
2021/09/28 07:05:26;;;;;;;11.05;2.67;;;;;;;20.82;39.62;100781.72;4937914;29;20035;-69
2021/09/28 07:07:52;;;;;;;10.35;2.10;;;;;;;20.80;39.51;100780.53;4937803;29;20397;-69
2021/09/28 07:10:17;;;;;;;7.57;1.73;;;;;;;20.90;39.44;100772.28;4938102;29;20040;-68
2021/09/28 07:12:43;;;;;;;10.98;2.40;;;;;;;20.90;39.42;100775.06;4938005;29;20118;-68
2021/09/28 07:15:09;;;;;;;11.15;3.22;;;;;;;20.92;39.68;100777.44;4937452;29;20111;-71
2021/09/28 07:17:35;;;;;;;14.98;3.15;;;;;;;20.88;39.74;100774.66;4937676;29;20036;-69
2021/09/28 07:20:02;;;;;;;6.72;2.00;;;;;;;21.00;39.33;100768.78;4937666;29;20087;-72
2021/09/28 07:22:27;;;;;;;10.07;2.47;;;;;;;21.06;39.39;100764.50;4937953;29;20111;-68
2021/09/28 07:24:55;;;;;;;11.40;2.88;;;;;;;21.09;39.61;100764.94;4936038;29;20110;-69
2021/09/28 07:27:21;;;;;;;12.15;2.97;;;;;;;21.15;39.42;100766.94;4918894;29;20024;-68
2021/09/28 07:29:47;;;;;;;7.65;1.92;;;;;;;21.25;39.42;100769.03;4936694;29;20024;-68
2021/09/28 07:32:14;;;;;;;5.82;1.45;;;;;;;21.27;39.10;100763.09;4935892;29;20035;-68
2021/09/28 07:34:40;;;;;;;7.90;2.17;;;;;;;21.39;39.08;100762.03;4935817;29;20119;-68
2021/09/28 07:37:06;;;;;;;7.38;2.20;;;;;;;21.43;39.03;100763.63;4935933;29;20024;-68
2021/09/28 07:39:32;;;;;;;8.02;1.55;;;;;;;21.43;39.09;100766.41;4936293;29;20651;-68
2021/09/28 07:41:57;;;;;;;8.57;1.88;;;;;;;21.48;38.98;100776.38;4936175;29;20086;-68
2021/09/28 07:44:24;;;;;;;7.55;2.40;;;;;;;21.53;38.70;100776.78;4936070;29;20038;-68
2021/09/28 07:46:53;;;;;;;4.88;1.63;;;;;;;21.63;38.77;100766.16;4937064;29;20479;-70
2021/09/28 07:49:19;;;;;;;8.18;2.05;;;;;;;21.62;38.83;100784.03;4932620;29;20427;-69
2021/09/28 07:51:45;;;;;;;7.07;1.55;;;;;;;21.68;38.62;100774.13;4927582;29;20032;-69
2021/09/28 07:54:11;;;;;;;11.15;3.60;;;;;;;21.63;38.97;100777.28;4925022;29;20115;-69
2021/09/28 07:56:36;;;;;;;5.95;1.52;;;;;;;21.71;38.63;100779.72;4927258;29;20103;-69
2021/09/28 07:59:05;;;;;;;7.00;1.55;;;;;;;21.79;38.41;100778.56;4910097;29;20111;-69
2021/09/28 08:01:31;;;;;;;5.30;1.63;;;;;;;21.76;38.52;100775.75;4925587;29;20403;-70
2021/09/28 08:03:57;;;;;;;8.40;2.03;;;;;;;21.79;38.51;100772.22;4927386;29;20023;-72
2021/09/28 08:06:22;;;;;;;7.88;1.60;;;;;;;21.80;38.06;100769.03;4926915;29;20042;-72
2021/09/28 08:08:48;;;;;;;12.20;1.58;;;;;;;21.55;38.67;100760.53;4925740;29;20056;-68
2021/09/28 08:11:13;;;;;;;8.77;1.52;;;;;;;21.80;38.27;100762.69;4927390;29;20058;-68
2021/09/28 08:13:39;;;;;;;8.68;1.85;;;;;;;21.82;38.04;100763.88;4926410;29;20052;-68
2021/09/28 08:16:04;;;;;;;9.75;3.40;;;;;;;21.89;37.77;100761.13;4925835;29;20028;-68
2021/09/28 08:18:30;;;;;;;6.82;1.48;;;;;;;22.00;37.72;100761.19;4927388;29;20016;-69
2021/09/28 08:20:56;;;;;;;15.40;2.28;;;;;;;21.91;37.64;100759.94;4925850;29;20079;-68
2021/09/28 08:23:22;;;;;;;5.25;1.80;;;;;;;21.99;37.45;100767.97;4926101;29;20035;-68
2021/09/28 08:25:59;;;;;;;16.90;2.58;;;;;;;22.03;37.38;100765.97;4927232;29;20154;-67
2021/09/28 08:31:10;;;;;;;3.30;0.93;;;;;;;22.15;37.20;100751.75;4926815;29;20130;-69
2021/09/28 08:33:38;;;;;;;6.10;1.48;;;;;;;22.21;37.02;100759.72;4925530;29;20080;-71
2021/09/28 08:36:05;;;;;;;6.43;1.88;;;;;;;22.32;37.11;100760.56;4925694;29;20036;-70
2021/09/28 08:38:31;;;;;;;8.32;1.63;;;;;;;22.29;36.98;100772.47;4926940;29;20470;-70
2021/09/28 08:40:58;;;;;;;5.80;1.77;;;;;;;22.31;36.82;100775.66;4925788;29;20035;-69
2021/09/28 08:43:24;;;;;;;6.47;1.42;;;;;;;22.33;36.93;100770.50;4925450;29;20024;-70
2021/09/28 08:45:50;;;;;;;4.55;1.70;;;;;;;22.41;36.88;100781.28;4926878;29;20035;-71
2021/09/28 08:48:16;;;;;;;7.13;1.00;;;;;;;22.54;36.68;100773.38;4925243;29;20452;-69
2021/09/28 08:50:46;;;;;;;8.30;2.47;;;;;;;22.46;36.41;100766.19;4925530;29;20466;-70
2021/09/28 08:53:19;;;;;;;4.18;1.30;;;;;;;22.50;36.59;100766.97;4926916;29;20415;-68
2021/09/28 08:55:45;;;;;;;5.97;1.50;;;;;;;22.58;36.28;100774.16;4926712;29;20024;-68
2021/09/28 08:58:13;;;;;;;5.78;2.50;;;;;;;22.67;36.27;100757.88;4924664;29;20389;-80
2021/09/28 09:00:38;;;;;;;8.38;2.15;;;;;;;22.65;36.44;100763.03;4925819;29;20046;-69
2021/09/28 09:03:04;;;;;;;6.68;2.22;;;;;;;22.75;36.15;100763.44;4926297;29;20107;-69
2021/09/28 09:05:29;;;;;;;4.35;1.40;;;;;;;22.77;36.17;100758.28;4924705;29;20035;-69
2021/09/28 09:08:00;;;;;;;6.18;1.88;;;;;;;22.73;35.98;100751.91;4926269;29;20027;-69
2021/09/28 09:10:31;;;;;;;3.97;1.17;;;;;;;22.68;36.11;100747.53;4926278;29;20024;-68
2021/09/28 09:12:58;;;;;;;6.90;1.63;;;;;;;22.76;36.14;100751.13;4924879;29;20127;-72
2021/09/28 09:15:30;;;;;;;4.15;1.23;;;;;;;22.75;36.40;100750.34;4925778;29;20024;-72
2021/09/28 09:18:01;;;;;;;5.93;1.92;;;;;;;22.90;36.01;100751.19;4922594;29;20032;-74
2021/09/28 09:20:33;;;;;;;7.18;1.60;;;;;;;22.80;36.50;100749.13;4927102;29;20023;-72
2021/09/28 09:23:28;;;;;;;4.25;1.27;;;;;;;22.74;36.37;100751.50;4923215;29;20060;-72
2021/09/28 09:26:02;;;;;;;9.30;1.90;;;;;;;23.19;35.57;100749.97;4926918;29;20039;-72
2021/09/28 09:28:32;;;;;;;8.85;2.47;;;;;;;23.14;35.91;100750.38;4924441;29;20028;-71
2021/09/28 09:31:17;;;;;;;7.28;1.85;;;;;;;23.45;35.63;100739.59;4921839;29;20024;-71
2021/09/28 09:33:44;;;;;;;4.97;1.70;;;;;;;23.57;35.58;100747.53;4924204;29;20503;-70
2021/09/28 09:36:22;;;;;;;6.82;1.23;;;;;;;23.38;35.34;100747.97;4924282;29;20115;-74
2021/09/28 09:38:54;;;;;;;8.13;2.35;;;;;;;23.64;35.30;100743.97;4924534;29;20094;-82
2021/09/28 09:41:27;;;;;;;10.65;4.30;;;;;;;23.74;35.00;100737.59;4904802;29;20028;-75
2021/09/28 09:44:04;;;;;;;7.35;2.17;;;;;;;23.99;34.99;100741.09;4924176;29;20028;-78
2021/09/28 09:46:48;;;;;;;3.17;1.27;;;;;;;24.08;34.42;100740.66;4924302;29;20035;-76
2021/09/28 09:49:16;;;;;;;4.88;1.48;;;;;;;23.94;34.83;100741.50;4924009;29;20067;-73
2021/09/28 09:51:53;;;;;;;5.32;1.63;;;;;;;24.07;34.34;100733.47;4924830;29;20032;-74
2021/09/28 09:54:41;;;;;;;4.32;1.20;;;;;;;23.59;34.65;100736.81;4922702;29;20087;-71
2021/09/28 09:57:08;;;;;;;6.68;1.10;;;;;;;23.79;34.81;100742.75;4924772;29;20498;-70
2021/09/28 09:59:36;;;;;;;7.10;2.10;;;;;;;24.15;33.93;100745.41;4921318;29;20096;-71
2021/09/28 10:02:02;;;;;;;7.30;1.35;;;;;;;24.17;34.12;100737.41;4926471;29;20040;-71
2021/09/28 10:04:28;;;;;;;10.82;2.20;;;;;;;24.09;33.91;100739.44;4923931;29;20040;-70
2021/09/28 10:06:56;;;;;;;6.55;1.60;;;;;;;24.16;33.99;100741.41;4921091;29;20032;-70
2021/09/28 10:09:34;;;;;;;6.03;1.45;;;;;;;24.28;33.78;100738.19;4924660;29;20126;-70
2021/09/28 10:12:03;;;;;;;8.57;1.95;;;;;;;24.59;34.03;100733.63;4922824;29;20062;-71
2021/09/28 10:14:48;;;;;;;4.93;1.17;;;;;;;24.71;33.45;100722.00;4916733;29;20391;-70
2021/09/28 10:17:30;;;;;;;5.28;1.38;;;;;;;24.81;33.36;100715.50;4917025;29;20064;-70
2021/09/28 10:20:00;;;;;;;3.53;1.30;;;;;;;24.86;33.45;100709.50;4919845;29;20043;-69
2021/09/28 10:23:05;;;;;;;5.35;1.40;;;;;;;24.86;32.74;100715.09;4919898;29;20035;-69
2021/09/28 10:25:39;;;;;;;7.38;2.42;;;;;;;24.92;33.38;100705.03;4920616;29;20447;-69
2021/09/28 10:28:04;;;;;;;3.95;1.63;;;;;;;25.03;33.35;100695.78;4884211;29;20490;-70
2021/09/28 10:30:33;;;;;;;4.25;1.50;;;;;;;24.88;33.42;100695.91;4923704;29;20020;-71
2021/09/28 10:33:01;;;;;;;3.65;1.20;;;;;;;24.88;33.35;100687.53;4928600;29;20437;-70
2021/09/28 10:35:28;;;;;;;2.88;1.25;;;;;;;25.08;33.26;100690.56;4938441;29;20028;-71
2021/09/28 10:37:58;;;;;;;6.45;1.27;;;;;;;24.99;32.71;100695.81;4935679;29;20099;-69
2021/09/28 10:40:27;;;;;;;5.80;1.90;;;;;;;24.95;33.19;100706.22;4929537;29;20024;-71
2021/09/28 10:42:55;;;;;;;3.67;1.10;;;;;;;24.92;32.84;100704.25;4938673;29;20036;-69
2021/09/28 10:45:40;;;;;;;8.48;1.70;;;;;;;24.96;32.63;100710.59;4919722;29;20027;-74
2021/09/28 10:48:30;;;;;;;5.05;1.63;;;;;;;24.70;33.37;100708.41;4902423;29;20119;-74
2021/09/28 10:51:11;;;;;;;4.93;2.03;;;;;;;24.75;32.45;100708.78;4919444;29;20029;-74
2021/09/28 10:53:39;;;;;;;3.22;1.20;;;;;;;24.91;32.72;100702.66;4932772;29;20067;-71
2021/09/28 10:56:13;;;;;;;2.45;1.13;;;;;;;24.82;32.57;100700.34;4938383;29;20034;-74
2021/09/28 10:58:56;;;;;;;7.97;1.70;;;;;;;24.81;32.55;100692.38;4920516;29;20119;-74
2021/09/28 11:01:26;;;;;;;7.05;1.42;;;;;;;25.15;32.11;100690.47;4934835;29;20056;-71
2021/09/28 11:03:58;;;;;;;4.80;1.00;;;;;;;24.79;32.32;100695.59;4927401;29;20038;-71
2021/09/28 11:06:42;;;;;;;6.47;1.35;;;;;;;24.38;32.05;100675.13;4928567;29;20023;-71
2021/09/28 11:09:08;;;;;;;6.55;1.92;;;;;;;24.87;31.63;100674.75;4925208;29;20024;-73
2021/09/28 11:11:34;;;;;;;2.65;1.48;;;;;;;25.00;31.84;100655.47;4927145;29;20053;-71
2021/09/28 11:14:02;;;;;;;2.95;1.45;;;;;;;25.25;31.74;100660.84;4927741;29;20505;-71
2021/09/28 11:16:28;;;;;;;3.60;1.45;;;;;;;25.10;31.76;100663.00;4926939;29;20036;-73
2021/09/28 11:18:58;;;;;;;3.38;1.42;;;;;;;25.00;31.90;100663.06;4927142;29;20024;-71
2021/09/28 11:21:25;;;;;;;;;;;;;;;24.99;31.47;100675.44;4924155;29;20025;-71
2021/09/28 11:23:52;;;;;;;2.67;1.13;;;;;;;24.90;31.88;100676.72;4927500;29;20412;-74
2021/09/28 11:26:18;;;;;;;4.05;1.05;;;;;;;24.75;31.52;100672.44;4928030;29;20028;-72
2021/09/28 11:28:49;;;;;;;5.47;1.60;;;;;;;24.73;31.86;100672.06;4922189;29;20575;-71
2021/09/28 11:31:15;;;;;;;4.65;1.58;;;;;;;24.60;31.97;100679.34;4926706;29;20114;-71
2021/09/28 11:33:43;;;;;;;4.25;1.58;;;;;;;24.55;31.86;100663.03;4927935;29;20475;-71
2021/09/28 11:36:13;;;;;;;5.13;1.58;;;;;;;24.68;31.98;100660.53;4926640;29;20523;-71
2021/09/28 11:38:45;;;;;;;4.22;1.17;;;;;;;24.69;32.30;100668.50;4926291;29;20651;-72
2021/09/28 11:41:18;;;;;;;6.20;1.63;;;;;;;24.80;31.73;100662.84;4927004;29;20043;-71
2021/09/28 11:43:53;;;;;;;13.35;3.28;;;;;;;24.73;31.84;100669.28;4904065;29;20055;-72
2021/09/28 11:46:20;;;;;;;6.25;1.58;;;;;;;24.74;31.75;100662.47;4925248;29;20059;-71
2021/09/28 11:48:56;;;;;;;4.88;1.30;;;;;;;24.83;31.68;100657.22;4923329;29;20062;-71
2021/09/28 11:51:24;;;;;;;3.28;1.00;;;;;;;24.81;31.27;100662.44;4925285;29;20027;-71
2021/09/28 11:53:53;;;;;;;5.75;1.35;;;;;;;24.99;31.59;100662.25;4926579;29;20035;-71
2021/09/28 11:56:19;;;;;;;3.38;1.05;;;;;;;25.26;31.35;100656.84;4927171;29;20092;-71
2021/09/28 11:58:47;;;;;;;2.67;1.13;;;;;;;25.48;31.45;100651.81;4923178;29;20027;-72
2021/09/28 12:01:15;;;;;;;5.25;1.38;;;;;;;25.64;31.29;100652.03;4925778;29;20043;-71
2021/09/28 12:09:45;;;;;;;3.22;1.00;;;;;;;25.78;31.60;100653.88;4923143;29;20032;-71
2021/09/28 12:12:16;;;;;;;5.15;1.42;;;;;;;25.99;31.22;100644.41;4911091;29;20059;-71
2021/09/28 12:14:51;;;;;;;2.35;1.13;;;;;;;26.15;31.34;100644.59;4925982;29;20035;-71
2021/09/28 12:17:30;;;;;;;4.10;0.90;;;;;;;26.21;30.92;100642.09;4927102;29;20059;-71
2021/09/28 12:19:56;;;;;;;2.58;0.65;;;;;;;26.56;31.02;100640.78;4908746;29;20084;-71
2021/09/28 12:22:31;;;;;;;3.67;1.00;;;;;;;26.72;30.48;100640.13;4925390;29;20386;-72
2021/09/28 12:24:59;;;;;;;3.42;1.13;;;;;;;27.05;30.07;100646.78;4926277;29;20040;-71
2021/09/28 12:27:26;;;;;;;4.78;1.02;;;;;;;27.05;29.49;100638.38;4927826;29;20031;-71
2021/09/28 12:29:54;;;;;;;5.70;1.10;;;;;;;26.90;29.71;100637.78;4916747;29;20028;-71
2021/09/28 12:32:25;;;;;;;3.97;1.20;;;;;;;27.31;28.95;100639.50;4906490;29;20052;-71
2021/09/28 12:35:04;;;;;;;8.52;1.38;;;;;;;27.40;28.28;100624.91;4921684;29;20553;-71
2021/09/28 12:37:30;;;;;;;4.55;0.80;;;;;;;27.50;28.60;100629.50;4934060;29;20020;-72
2021/09/28 12:40:09;;;;;;;3.47;0.80;;;;;;;27.63;28.17;100639.66;4935859;29;20043;-71
2021/09/28 12:42:37;;;;;;;1.15;0.52;;;;;;;27.62;27.55;100634.47;4918966;29;20039;-71
2021/09/28 12:45:15;;;;;;;5.85;0.85;;;;;;;27.47;27.44;100631.16;4936050;29;20040;-70
2021/09/28 12:47:54;;;;;;;2.63;0.82;;;;;;;27.30;27.84;100637.91;4936574;29;20028;-70
2021/09/28 12:50:24;;;;;;;3.75;0.93;;;;;;;27.56;27.82;100631.38;4936464;29;20375;-69
2021/09/28 12:52:51;;;;;;;;;;;;;;;27.42;27.93;100628.84;4936609;29;20044;-70
2021/09/28 12:55:17;;;;;;;3.25;0.90;;;;;;;27.34;27.48;100621.78;4936309;29;20370;-70
2021/09/28 12:57:43;;;;;;;2.33;0.80;;;;;;;27.29;27.70;100628.72;4936209;29;20035;-71
2021/09/28 13:00:09;;;;;;;4.70;1.13;;;;;;;27.06;28.21;100640.75;4935515;29;20127;-72
2021/09/28 13:02:35;;;;;;;6.93;1.10;;;;;;;26.90;28.02;100634.19;4935288;29;20047;-74
2021/09/28 13:05:02;;;;;;;2.97;0.80;;;;;;;26.53;28.90;100645.25;4936084;29;20040;-70
2021/09/28 13:07:28;;;;;;;4.30;0.63;;;;;;;25.53;31.21;100653.34;4935998;29;20035;-70
2021/09/28 13:09:54;;;;;;;3.63;1.05;;;;;;;25.15;31.62;100667.31;4934917;29;20024;-71
2021/09/28 13:12:20;;;;;;;6.15;0.85;;;;;;;24.33;31.94;100682.75;4934775;29;20082;-71
2021/09/28 13:14:46;;;;;;;3.42;0.93;;;;;;;23.92;32.03;100692.88;4918614;29;20122;-71
2021/09/28 13:17:12;;;;;;;2.60;1.00;;;;;;;23.31;32.84;100697.81;4918740;29;20118;-71
2021/09/28 13:19:38;;;;;;;4.53;0.80;;;;;;;23.33;33.37;100696.19;4935860;29;20023;-70
2021/09/28 13:22:04;;;;;;;2.42;0.60;;;;;;;22.69;35.03;100702.56;4935287;29;20371;-71
2021/09/28 13:24:30;;;;;;;3.13;1.08;;;;;;;22.98;34.78;100686.69;4934158;29;20031;-71
2021/09/28 13:26:56;;;;;;;3.85;0.95;;;;;;;23.12;34.24;100679.50;4933889;29;20083;-71
2021/09/28 13:29:21;;;;;;;3.20;0.60;;;;;;;23.11;34.93;100684.28;4933896;29;20031;-71
2021/09/28 13:31:47;;;;;;;3.83;1.42;;;;;;;23.30;34.91;100679.50;4933805;29;20102;-71
2021/09/28 13:34:13;;;;;;;2.33;0.80;;;;;;;23.46;34.85;100677.84;4933701;29;20098;-71
2021/09/28 13:36:39;;;;;;;9.90;2.00;;;;;;;23.51;35.14;100674.66;4933689;29;20039;-70
2021/09/28 13:39:06;;;;;;;1.42;0.70;;;;;;;23.37;35.58;100674.69;4935432;29;20035;-70
2021/09/28 13:41:34;;;;;;;3.50;1.55;;;;;;;23.53;35.38;100674.25;4935570;29;20032;-70
2021/09/28 13:44:00;;;;;;;5.28;1.27;;;;;;;23.50;35.47;100675.88;4935504;29;20032;-71
2021/09/28 13:46:25;;;;;;;7.22;2.05;;;;;;;23.42;35.88;100673.47;4935689;29;20554;-71
2021/09/28 13:48:51;;;;;;;2.70;1.00;;;;;;;23.56;35.68;100673.44;4935488;29;20031;-73
2021/09/28 13:51:17;;;;;;;8.43;2.40;;;;;;;23.53;35.90;100674.25;4935297;29;20035;-70
2021/09/28 13:53:43;;;;;;;7.80;1.15;;;;;;;23.50;36.32;100661.94;4935254;29;20497;-70
2021/09/28 13:56:08;;;;;;;2.25;0.88;;;;;;;23.56;36.34;100665.06;4935484;29;20020;-70
2021/09/28 13:58:34;;;;;;;5.32;1.20;;;;;;;23.75;36.47;100659.06;4934793;29;20423;-72
2021/09/28 14:00:59;;;;;;;3.00;1.05;;;;;;;23.84;36.54;100649.47;4934539;29;20091;-71
2021/09/28 14:03:25;;;;;;;1.88;0.63;;;;;;;23.78;37.02;100652.66;4934711;29;20024;-71
2021/09/28 14:05:51;;;;;;;4.57;0.82;;;;;;;24.14;36.90;100649.72;4934638;29;20027;-71
2021/09/28 14:08:17;;;;;;;3.55;1.90;;;;;;;23.88;37.50;100653.84;4934745;29;20024;-71
2021/09/28 14:10:42;;;;;;;1.77;0.93;;;;;;;24.25;36.88;100639.25;4917814;29;20411;-70
2021/09/28 14:13:09;;;;;;;2.80;0.95;;;;;;;24.15;37.14;100639.34;4934545;29;20034;-70
2021/09/28 14:15:34;;;;;;;3.30;1.40;;;;;;;24.39;36.45;100626.44;4934832;29;20042;-74
2021/09/28 14:18:02;;;;;;;1.20;0.65;;;;;;;24.49;36.48;100629.16;4934895;29;20107;-70
2021/09/28 14:20:28;;;;;;;4.43;1.15;;;;;;;24.45;36.08;100627.59;4934743;29;20058;-70
2021/09/28 14:22:54;;;;;;;2.97;0.77;;;;;;;24.63;35.99;100626.22;4934740;29;20051;-70
2021/09/28 14:25:19;;;;;;;7.53;1.17;;;;;;;24.53;35.91;100629.91;4934465;29;20368;-71
2021/09/28 14:27:45;;;;;;;1.98;0.82;;;;;;;24.77;35.58;100630.13;4934531;29;20028;-74
2021/09/28 14:30:11;;;;;;;1.45;0.95;;;;;;;24.85;35.41;100614.88;4934647;29;20031;-74
2021/09/28 14:32:37;;;;;;;2.38;1.25;;;;;;;24.97;35.31;100633.94;4935034;29;20036;-70
2021/09/28 14:35:03;;;;;;;2.38;0.93;;;;;;;24.88;35.18;100626.03;4935067;29;20387;-69